Time;durP1;ratioP1;P1;durP2;ratioP2;P2;SDS_P1;SDS_P2;PMS_P1;PMS_P2;Temp;Humidity;BMP_temperature;BMP_pressure;BME280_temperature;BME280_humidity;BME280_pressure;Samples;Min_cycle;Max_cycle;Signal;HPM_P1;HPM_P2
2023/04/19 00:01:57;;;;;;;0.00;0.00;;;;;;;13.18;51.42;102332.25;7354872;19;20014;-61
2023/04/19 00:04:24;;;;;;;0.00;0.00;;;;;;;13.15;50.92;102332.25;7353036;19;20780;-61
2023/04/19 00:06:50;;;;;;;0.00;0.00;;;;;;;13.04;51.32;102320.97;7355073;19;20031;-61
2023/04/19 00:09:16;;;;;;;0.00;0.00;;;;;;;12.95;51.41;102310.56;7353964;19;20010;-61
2023/04/19 00:11:41;;;;;;;0.00;0.00;;;;;;;12.99;51.38;102317.53;7355851;19;20042;-61
2023/04/19 00:14:06;;;;;;;0.00;0.00;;;;;;;13.00;50.73;102319.25;7354859;19;20606;-61
2023/04/19 00:16:32;;;;;;;0.00;0.00;;;;;;;12.96;51.54;102328.88;7353636;19;20034;-62
2023/04/19 00:18:57;;;;;;;0.00;0.00;;;;;;;12.94;51.64;102324.56;7355095;19;20010;-61
2023/04/19 00:21:23;;;;;;;0.00;0.00;;;;;;;12.89;51.57;102316.72;7353280;19;20829;-61
2023/04/19 00:23:48;;;;;;;0.00;0.00;;;;;;;12.87;51.77;102322.81;7356090;19;20010;-61
2023/04/19 00:26:14;;;;;;;0.00;0.00;;;;;;;12.84;51.45;102322.88;7352094;19;20029;-61
2023/04/19 00:28:40;;;;;;;0.00;0.00;;;;;;;12.81;51.79;102317.63;7356445;19;20011;-61
2023/04/19 00:31:05;;;;;;;0.00;0.00;;;;;;;12.78;51.80;102317.66;7350869;19;20014;-61
2023/04/19 00:33:32;;;;;;;0.00;0.00;;;;;;;12.73;51.45;102309.81;7354067;19;20014;-61
2023/04/19 00:35:57;;;;;;;0.00;0.00;;;;;;;12.70;51.59;102315.94;7348045;19;20110;-61
2023/04/19 00:38:23;;;;;;;0.10;0.10;;;;;;;12.68;51.34;102315.09;7356273;19;20530;-61
2023/04/19 00:40:48;;;;;;;0.00;0.00;;;;;;;12.64;51.24;102323.84;7350125;19;20020;-61
2023/04/19 00:43:18;;;;;;;0.00;0.00;;;;;;;12.61;51.29;102321.22;7356050;19;20519;-61
2023/04/19 00:45:44;;;;;;;0.00;0.00;;;;;;;12.57;51.47;102324.78;7353164;19;20057;-61
2023/04/19 00:48:10;;;;;;;0.00;0.00;;;;;;;12.54;51.11;102324.78;7354709;19;21345;-61
2023/04/19 00:50:36;;;;;;;0.10;0.10;;;;;;;12.50;51.53;102319.53;7353743;19;20634;-61
2023/04/19 00:53:01;;;;;;;0.00;0.00;;;;;;;12.45;51.84;102315.19;7353976;19;20014;-61
2023/04/19 00:55:26;;;;;;;0.00;0.00;;;;;;;12.38;52.24;102302.16;7354226;19;20039;-60
2023/04/19 00:57:53;;;;;;;0.00;0.00;;;;;;;12.33;51.89;102298.69;7354050;19;20026;-61
2023/04/19 01:00:18;;;;;;;0.00;0.00;;;;;;;12.35;52.29;102307.38;7354711;19;20596;-60
2023/04/19 01:02:44;;;;;;;0.00;0.00;;;;;;;12.32;52.29;102297.81;7352111;19;20015;-61
2023/04/19 01:05:10;;;;;;;0.00;0.00;;;;;;;12.29;52.19;102305.66;7353285;19;20010;-61
2023/04/19 01:07:35;;;;;;;0.00;0.00;;;;;;;12.26;51.94;102299.56;7351257;19;20017;-61
2023/04/19 01:10:01;;;;;;;0.00;0.00;;;;;;;12.25;52.21;102310.91;7351430;19;20011;-61
2023/04/19 01:12:26;;;;;;;0.00;0.00;;;;;;;12.21;52.07;102304.81;7352909;19;20010;-61
2023/04/19 01:14:51;;;;;;;0.00;0.00;;;;;;;12.18;52.15;102302.22;7354812;19;20014;-61
2023/04/19 01:17:18;;;;;;;0.00;0.00;;;;;;;12.15;52.67;102297.00;7353083;19;20139;-61
2023/04/19 01:19:44;;;;;;;0.00;0.00;;;;;;;12.13;52.13;102291.75;7351059;19;20476;-61
2023/04/19 01:22:15;;;;;;;0.00;0.00;;;;;;;12.06;51.69;102295.25;7354170;19;20014;-61
2023/04/19 01:24:41;;;;;;;0.00;0.00;;;;;;;12.08;52.10;102304.00;7350104;19;20010;-61
2023/04/19 01:27:06;;;;;;;0.00;0.00;;;;;;;11.97;52.56;102284.84;7354640;19;20025;-61
2023/04/19 01:29:32;;;;;;;0.00;0.00;;;;;;;12.01;52.30;102291.78;7349507;19;20478;-61
2023/04/19 01:31:57;;;;;;;0.00;0.00;;;;;;;11.99;52.40;102293.56;7355598;19;20011;-61
2023/04/19 01:34:23;;;;;;;0.00;0.00;;;;;;;11.95;52.62;102287.44;7349679;19;20041;-61
2023/04/19 01:36:48;;;;;;;0.00;0.00;;;;;;;11.87;52.62;102290.97;7352883;19;20481;-61
2023/04/19 01:39:13;;;;;;;0.00;0.00;;;;;;;11.89;52.28;102287.47;7349430;19;20013;-61
2023/04/19 01:41:39;;;;;;;0.00;0.00;;;;;;;11.86;52.62;102287.50;7355494;19;21100;-61
2023/04/19 01:44:04;;;;;;;0.00;0.00;;;;;;;11.84;52.79;102301.44;7349197;19;20027;-61
2023/04/19 01:46:30;;;;;;;0.00;0.00;;;;;;;11.79;52.86;102300.56;7349813;19;20345;-61
2023/04/19 01:48:55;;;;;;;0.00;0.00;;;;;;;11.78;53.10;102298.81;7353566;19;20002;-63
2023/04/19 01:51:21;;;;;;;0.00;0.00;;;;;;;11.72;52.91;102299.72;7351704;19;20645;-63
2023/04/19 01:53:52;;;;;;;0.00;0.00;;;;;;;11.72;52.58;102304.06;7351590;19;20014;-62
2023/04/19 01:56:17;;;;;;;0.00;0.00;;;;;;;11.67;53.20;102297.09;7351489;19;20392;-62
2023/04/19 01:58:43;;;;;;;0.00;0.00;;;;;;;11.66;53.08;102300.59;7343531;19;20014;-61
2023/04/19 02:01:11;;;;;;;0.00;0.00;;;;;;;11.63;53.07;102300.59;7354507;19;20010;-61
2023/04/19 02:03:37;;;;;;;0.10;0.10;;;;;;;11.62;53.19;102298.84;7349032;19;20014;-61
2023/04/19 02:06:02;;;;;;;0.00;0.00;;;;;;;11.60;53.33;102295.34;7351818;19;20023;-61
2023/04/19 02:08:28;;;;;;;0.00;0.00;;;;;;;11.58;53.34;102291.88;7351461;19;20017;-61
2023/04/19 02:10:53;;;;;;;0.00;0.00;;;;;;;11.56;53.58;102290.16;7354734;19;20010;-61
2023/04/19 02:13:19;;;;;;;0.00;0.00;;;;;;;11.53;53.43;102283.16;7345988;19;20006;-61
2023/04/19 02:15:45;;;;;;;0.00;0.00;;;;;;;11.53;53.43;102287.53;7353550;19;20006;-61
2023/04/19 02:18:10;;;;;;;0.00;0.00;;;;;;;11.49;53.37;102281.41;7354917;19;20006;-61
2023/04/19 02:20:36;;;;;;;0.00;0.00;;;;;;;11.49;53.49;102275.31;7358433;19;20027;-61
2023/04/19 02:23:01;;;;;;;0.00;0.00;;;;;;;11.40;53.46;102265.72;7361044;19;20015;-61
2023/04/19 02:25:26;;;;;;;0.00;0.00;;;;;;;11.45;53.68;102277.03;7358360;19;20019;-61
2023/04/19 02:27:52;;;;;;;0.00;0.00;;;;;;;11.35;53.81;102263.13;7356525;19;20009;-62
2023/04/19 02:30:18;;;;;;;0.00;0.00;;;;;;;11.41;53.74;102267.47;7358947;19;20010;-61
2023/04/19 02:32:43;;;;;;;0.00;0.00;;;;;;;11.39;53.62;102277.06;7353956;19;20006;-62
2023/04/19 02:35:09;;;;;;;0.00;0.00;;;;;;;11.38;53.92;102272.72;7357553;19;20439;-61
2023/04/19 02:37:34;;;;;;;0.00;0.00;;;;;;;11.35;54.00;102272.69;7361062;19;20018;-61
2023/04/19 02:39:59;;;;;;;0.00;0.00;;;;;;;11.35;54.33;102272.69;7355941;19;20015;-61
2023/04/19 02:42:25;;;;;;;0.00;0.00;;;;;;;11.32;54.66;102273.59;7357322;19;20039;-61
2023/04/19 02:44:50;;;;;;;0.00;0.00;;;;;;;11.31;54.30;102266.63;7354471;19;20606;-61
2023/04/19 02:47:16;;;;;;;0.00;0.00;;;;;;;11.29;54.55;102257.00;7361645;19;20002;-61
2023/04/19 02:49:41;;;;;;;0.00;0.00;;;;;;;11.29;54.42;102251.78;7357891;19;20015;-62
2023/04/19 02:52:07;;;;;;;0.00;0.00;;;;;;;11.22;54.28;102232.63;7357795;19;20463;-61
2023/04/19 02:54:33;;;;;;;0.00;0.00;;;;;;;11.25;54.52;102250.03;7357390;19;20978;-61
2023/04/19 02:56:58;;;;;;;0.00;0.00;;;;;;;11.25;54.18;102248.28;7361578;19;20011;-61
2023/04/19 02:59:24;;;;;;;0.10;0.10;;;;;;;11.24;54.02;102243.94;7356702;19;20787;-61
2023/04/19 03:01:49;;;;;;;0.00;0.00;;;;;;;11.22;54.37;102250.94;7360217;19;20926;-61
2023/04/19 03:04:15;;;;;;;0.00;0.00;;;;;;;11.22;54.15;102250.94;7336467;19;20027;-61
2023/04/19 03:06:43;;;;;;;0.10;0.10;;;;;;;11.18;54.31;102249.19;7358826;19;20010;-61
2023/04/19 03:09:09;;;;;;;0.00;0.00;;;;;;;11.17;54.10;102232.63;7358410;19;20027;-61
2023/04/19 03:11:35;;;;;;;0.00;0.00;;;;;;;11.15;54.25;102234.38;7354103;19;20018;-61
2023/04/19 03:14:01;;;;;;;0.00;0.00;;;;;;;11.08;54.27;102221.28;7358769;19;20499;-61
2023/04/19 03:16:29;;;;;;;0.00;0.00;;;;;;;11.08;54.33;102218.69;7358966;19;20035;-61
2023/04/19 03:18:54;;;;;;;;;;;;;;;11.10;52.14;102224.78;7342884;19;20904;-61
2023/04/19 03:21:19;;;;;;;0.00;0.00;;;;;;;11.05;53.95;102221.28;7361031;19;19922;-61
2023/04/19 03:23:45;;;;;;;0.00;0.00;;;;;;;11.02;54.56;102227.41;7354968;19;20010;-61
2023/04/19 03:26:10;;;;;;;0.00;0.00;;;;;;;10.98;54.43;102220.44;7360375;19;20018;-61
2023/04/19 03:28:36;;;;;;;0.00;0.00;;;;;;;10.96;54.89;102216.97;7354947;19;20042;-62
2023/04/19 03:31:01;;;;;;;0.00;0.00;;;;;;;10.93;54.95;102222.16;7359727;19;20454;-61
2023/04/19 03:33:27;;;;;;;0.00;0.00;;;;;;;10.92;54.46;102230.88;7359151;19;20101;-62
2023/04/19 03:35:52;;;;;;;0.00;0.00;;;;;;;10.88;54.79;102229.13;7362153;19;20097;-61
2023/04/19 03:38:17;;;;;;;0.00;0.00;;;;;;;10.85;55.10;102219.56;7354754;19;20102;-61
2023/04/19 03:40:43;;;;;;;0.00;0.00;;;;;;;10.84;55.21;102219.53;7359563;19;20010;-62
2023/04/19 03:43:08;;;;;;;0.10;0.10;;;;;;;10.72;55.33;102206.47;7357158;19;20023;-61
2023/04/19 03:45:34;;;;;;;0.03;0.03;;;;;;;10.80;55.25;102231.75;7358432;19;20021;-62
2023/04/19 03:47:59;;;;;;;0.00;0.00;;;;;;;10.51;55.30;102183.81;7358050;19;20472;-62
2023/04/19 03:50:24;;;;;;;0.00;0.00;;;;;;;10.77;55.43;102225.66;7358930;19;20007;-62
2023/04/19 03:52:50;;;;;;;0.00;0.00;;;;;;;10.75;55.64;102214.34;7359282;19;20097;-61
2023/04/19 03:55:15;;;;;;;0.00;0.00;;;;;;;10.74;56.23;102215.19;7360411;19;20069;-62
2023/04/19 03:57:41;;;;;;;0.00;0.00;;;;;;;10.73;55.96;102226.50;7359613;19;20044;-61
2023/04/19 04:00:07;;;;;;;0.00;0.00;;;;;;;10.67;55.85;102214.31;7353997;19;20475;-62
2023/04/19 04:02:33;;;;;;;0.00;0.00;;;;;;;10.70;56.31;102219.56;7361019;19;20010;-61
2023/04/19 04:04:58;;;;;;;0.00;0.00;;;;;;;10.70;56.88;102229.13;7359878;19;20054;-61
2023/04/19 04:07:24;;;;;;;0.10;0.10;;;;;;;10.68;56.90;102223.03;7357451;19;20688;-62
2023/04/19 04:09:50;;;;;;;0.00;0.00;;;;;;;10.67;57.10;102223.91;7357500;19;20792;-61
2023/04/19 04:12:15;;;;;;;0.00;0.00;;;;;;;10.65;56.88;102232.63;7356795;19;20007;-62
2023/04/19 04:14:41;;;;;;;0.00;0.00;;;;;;;10.65;56.97;102230.00;7356855;19;20755;-62
2023/04/19 04:17:06;;;;;;;0.00;0.00;;;;;;;10.62;57.04;102211.69;7362204;19;20021;-61
2023/04/19 04:19:31;;;;;;;0.00;0.00;;;;;;;10.50;57.19;102193.41;7352661;19;20018;-62
2023/04/19 04:21:57;;;;;;;0.00;0.00;;;;;;;10.61;57.28;102209.09;7359504;19;20010;-61
2023/04/19 04:24:22;;;;;;;0.00;0.00;;;;;;;10.59;57.06;102214.31;7357694;19;20040;-62
2023/04/19 04:26:51;;;;;;;0.00;0.00;;;;;;;10.59;57.16;102224.78;7351524;19;20044;-62
2023/04/19 04:29:17;;;;;;;0.00;0.00;;;;;;;10.58;57.20;102241.28;7358923;19;20007;-62
2023/04/19 04:31:42;;;;;;;0.00;0.00;;;;;;;10.58;57.63;102243.91;7359229;19;20115;-61
2023/04/19 04:34:08;;;;;;;0.00;0.00;;;;;;;10.59;57.45;102247.38;7357413;19;20048;-61
2023/04/19 04:36:35;;;;;;;0.00;0.00;;;;;;;10.59;57.13;102253.50;7357894;19;20014;-62
2023/04/19 04:39:01;;;;;;;0.00;0.00;;;;;;;10.61;57.24;102256.97;7356846;19;20022;-62
2023/04/19 04:41:26;;;;;;;0.10;0.10;;;;;;;10.61;57.53;102248.28;7354891;19;20099;-61
2023/04/19 04:43:52;;;;;;;0.00;0.00;;;;;;;10.50;57.76;102232.59;7355463;19;20450;-62
2023/04/19 04:46:17;;;;;;;0.00;0.00;;;;;;;10.67;57.51;102250.03;7355931;19;20015;-62
2023/04/19 04:48:43;;;;;;;0.00;0.00;;;;;;;10.68;57.65;102249.16;7357502;19;20435;-63
2023/04/19 04:51:08;;;;;;;0.00;0.00;;;;;;;10.71;57.46;102246.56;7360105;19;20850;-62
2023/04/19 04:53:34;;;;;;;0.00;0.00;;;;;;;10.72;57.77;102243.94;7354880;19;20373;-62
2023/04/19 04:55:59;;;;;;;0.10;0.10;;;;;;;10.62;57.76;102216.91;7356954;19;20015;-62
2023/04/19 04:58:25;;;;;;;0.00;0.00;;;;;;;10.78;57.97;102246.53;7358790;19;20868;-62
2023/04/19 05:00:50;;;;;;;0.00;0.00;;;;;;;10.80;57.75;102238.72;7358190;19;20577;-62
2023/04/19 05:03:16;;;;;;;0.00;0.00;;;;;;;10.84;57.51;102243.94;7353545;19;20021;-62
2023/04/19 05:05:41;;;;;;;0.00;0.00;;;;;;;10.86;57.57;102236.13;7358206;19;20613;-62
2023/04/19 05:08:07;;;;;;;0.00;0.00;;;;;;;10.88;57.66;102245.69;7357607;19;20014;-61
2023/04/19 05:10:32;;;;;;;0.00;0.00;;;;;;;10.90;57.71;102245.72;7358735;19;20022;-62
2023/04/19 05:13:00;;;;;;;0.00;0.00;;;;;;;10.94;57.68;102251.78;7357713;19;20007;-61
2023/04/19 05:15:25;;;;;;;0.00;0.00;;;;;;;10.93;57.96;102243.06;7356839;19;20473;-62
2023/04/19 05:17:50;;;;;;;0.00;0.00;;;;;;;10.94;57.73;102239.59;7358479;19;20003;-62
2023/04/19 05:20:16;;;;;;;0.00;0.00;;;;;;;10.97;57.35;102236.13;7352871;19;21003;-62
2023/04/19 05:22:41;;;;;;;0.00;0.00;;;;;;;10.97;57.38;102234.38;7357991;19;20399;-61
2023/04/19 05:25:09;;;;;;;0.00;0.00;;;;;;;11.00;56.65;102229.16;7355611;19;20027;-62
2023/04/19 05:27:34;;;;;;;0.00;0.00;;;;;;;10.99;57.15;102227.38;7357860;19;20026;-62
2023/04/19 05:29:59;;;;;;;0.00;0.00;;;;;;;11.01;57.20;102230.91;7356065;19;20014;-62
2023/04/19 05:32:26;;;;;;;0.00;0.00;;;;;;;11.00;57.00;102234.38;7358843;19;20014;-62
2023/04/19 05:34:51;;;;;;;0.00;0.00;;;;;;;11.00;57.47;102226.53;7354616;19;20021;-61
2023/04/19 05:37:17;;;;;;;0.00;0.00;;;;;;;10.90;56.84;102207.38;7358012;19;20063;-61
2023/04/19 05:39:42;;;;;;;0.00;0.00;;;;;;;11.01;57.30;102235.25;7354547;19;20006;-61
2023/04/19 05:42:07;;;;;;;0.00;0.00;;;;;;;11.00;57.28;102239.63;7352749;19;20402;-61
2023/04/19 05:44:33;;;;;;;0.00;0.00;;;;;;;10.99;57.07;102248.31;7354433;19;20110;-62
2023/04/19 05:46:58;;;;;;;0.00;0.00;;;;;;;11.00;57.62;102244.84;7356490;19;20019;-61
2023/04/19 05:49:24;;;;;;;0.00;0.00;;;;;;;11.02;57.44;102252.69;7350922;19;20010;-61
2023/04/19 05:51:49;;;;;;;0.00;0.00;;;;;;;11.04;57.16;102256.16;7354151;19;20078;-62
2023/04/19 05:54:15;;;;;;;0.00;0.00;;;;;;;11.06;57.63;102265.75;7354315;19;20045;-61
2023/04/19 05:56:41;;;;;;;0.00;0.00;;;;;;;11.08;57.06;102269.22;7356639;19;20010;-61
2023/04/19 05:59:07;;;;;;;0.00;0.00;;;;;;;11.09;57.58;102264.88;7345559;19;20467;-61
2023/04/19 06:01:32;;;;;;;0.00;0.00;;;;;;;11.12;57.01;102268.34;7349171;19;20019;-62
2023/04/19 06:03:57;;;;;;;0.00;0.00;;;;;;;11.16;57.12;102264.00;7350749;19;20013;-62
2023/04/19 06:06:23;;;;;;;0.00;0.00;;;;;;;11.17;57.27;102264.00;7350904;19;20624;-62
2023/04/19 06:08:49;;;;;;;0.10;0.10;;;;;;;11.17;57.12;102261.38;7355110;19;20006;-61
2023/04/19 06:11:14;;;;;;;0.00;0.00;;;;;;;11.22;57.41;102260.53;7349763;19;20079;-61
2023/04/19 06:13:40;;;;;;;0.03;0.03;;;;;;;11.24;57.10;102248.31;7350124;19;20740;-61
2023/04/19 06:16:06;;;;;;;0.00;0.00;;;;;;;11.26;56.75;102254.41;7348176;19;20490;-61
2023/04/19 06:18:32;;;;;;;0.00;0.00;;;;;;;11.28;56.79;102250.06;7352155;19;19998;-61
2023/04/19 06:20:57;;;;;;;0.00;0.00;;;;;;;11.29;56.79;102257.00;7348208;19;20368;-61
2023/04/19 06:23:24;;;;;;;0.00;0.00;;;;;;;11.26;57.05;102237.00;7351695;19;20007;-62
2023/04/19 06:25:49;;;;;;;0.00;0.00;;;;;;;11.33;56.52;102258.75;7345046;19;20011;-61
2023/04/19 06:28:15;;;;;;;0.00;0.00;;;;;;;11.32;56.92;102252.66;7349494;19;20436;-61
2023/04/19 06:30:40;;;;;;;0.00;0.00;;;;;;;11.37;56.41;102252.66;7347567;19;20014;-62
2023/04/19 06:33:05;;;;;;;0.00;0.00;;;;;;;11.40;56.64;102250.94;7351334;19;20467;-61
2023/04/19 06:35:31;;;;;;;0.00;0.00;;;;;;;11.40;56.91;102250.03;7347256;19;20718;-62
2023/04/19 06:37:58;;;;;;;0.03;0.03;;;;;;;11.45;56.67;102248.28;7348285;19;20046;-62
2023/04/19 06:40:23;;;;;;;0.00;0.00;;;;;;;11.42;57.01;102243.06;7351506;19;20023;-61
2023/04/19 06:42:49;;;;;;;0.00;0.00;;;;;;;11.48;56.73;102248.28;7348009;19;20036;-61
2023/04/19 06:45:15;;;;;;;0.00;0.00;;;;;;;11.52;56.58;102250.03;7349125;19;20006;-61
2023/04/19 06:47:40;;;;;;;0.00;0.00;;;;;;;11.54;56.94;102253.50;7347873;19;20101;-62
2023/04/19 06:50:06;;;;;;;0.00;0.00;;;;;;;11.55;56.44;102250.00;7351214;19;21581;-61
2023/04/19 06:52:32;;;;;;;0.00;0.00;;;;;;;11.59;56.70;102245.63;7350572;19;20025;-68
2023/04/19 06:54:57;;;;;;;0.00;0.00;;;;;;;11.62;56.39;102245.66;7328554;19;20637;-68
2023/04/19 06:57:22;;;;;;;0.00;0.00;;;;;;;11.64;56.26;102249.97;7353175;19;20090;-68
2023/04/19 06:59:48;;;;;;;0.00;0.00;;;;;;;11.67;56.27;102252.59;7352306;19;20738;-68
2023/04/19 07:02:13;;;;;;;0.00;0.00;;;;;;;11.69;56.54;102248.22;7348692;19;20672;-68
2023/04/19 07:04:39;;;;;;;0.00;0.00;;;;;;;11.73;56.27;102250.84;7352774;19;20059;-68
2023/04/19 07:07:04;;;;;;;0.00;0.00;;;;;;;11.76;55.96;102253.44;7360083;19;20082;-68
2023/04/19 07:09:29;;;;;;;0.00;0.00;;;;;;;11.80;55.91;102247.31;7361051;19;20011;-68
2023/04/19 07:11:56;;;;;;;0.08;0.08;;;;;;;11.81;56.01;102249.97;7358299;19;20021;-67
2023/04/19 07:14:22;;;;;;;0.00;0.00;;;;;;;11.70;56.46;102223.78;7331417;19;20010;-68
2023/04/19 07:16:48;;;;;;;0.00;0.00;;;;;;;11.86;56.39;102244.72;7359900;19;20017;-68
2023/04/19 07:19:14;;;;;;;0.00;0.00;;;;;;;11.90;55.98;102243.84;7359609;19;21105;-68
2023/04/19 07:21:39;;;;;;;0.00;0.00;;;;;;;11.93;55.82;102238.59;7361190;19;20009;-68
2023/04/19 07:24:06;;;;;;;0.00;0.00;;;;;;;11.94;56.21;102240.34;7359622;19;20495;-68
2023/04/19 07:26:32;;;;;;;0.03;0.03;;;;;;;11.96;55.89;102238.56;7362294;19;20025;-68
2023/04/19 07:28:58;;;;;;;0.00;0.00;;;;;;;11.93;56.15;102228.13;7357828;19;20581;-68
2023/04/19 07:31:24;;;;;;;0.08;0.08;;;;;;;12.01;56.10;102239.41;7360418;19;20010;-68
2023/04/19 07:33:50;;;;;;;0.05;0.05;;;;;;;12.01;55.90;102228.94;7358512;19;20089;-65
2023/04/19 07:36:16;;;;;;;0.00;0.00;;;;;;;11.92;56.36;102218.53;7359112;19;20664;-68
2023/04/19 07:38:41;;;;;;;0.00;0.00;;;;;;;12.06;56.12;102231.56;7359606;19;20022;-68
2023/04/19 07:41:07;;;;;;;0.00;0.00;;;;;;;11.99;56.16;102215.00;7346536;19;20028;-68
2023/04/19 07:43:33;;;;;;;0.00;0.00;;;;;;;12.12;56.19;102232.41;7359290;19;20612;-68
2023/04/19 07:45:58;;;;;;;0.00;0.00;;;;;;;12.16;56.34;102241.97;7356648;19;20851;-68
2023/04/19 07:48:24;;;;;;;0.08;0.08;;;;;;;12.22;55.44;102248.09;7360378;19;20010;-67
2023/04/19 07:50:49;;;;;;;0.00;0.00;;;;;;;12.25;55.62;102253.31;7361223;19;20377;-68
2023/04/19 07:53:15;;;;;;;0.00;0.00;;;;;;;12.27;55.68;102244.56;7358940;19;20047;-68
2023/04/19 07:55:40;;;;;;;0.00;0.00;;;;;;;12.29;55.73;102250.66;7358817;19;20014;-68
2023/04/19 07:58:06;;;;;;;0.10;0.10;;;;;;;12.31;55.60;102238.41;7361971;19;21216;-68
2023/04/19 08:00:35;;;;;;;0.00;0.00;;;;;;;12.35;55.76;102249.75;7359743;19;20020;-68
2023/04/19 08:03:01;;;;;;;0.00;0.00;;;;;;;12.35;55.54;102236.66;7360556;19;20458;-68
2023/04/19 08:05:26;;;;;;;0.10;0.10;;;;;;;12.39;55.66;102235.75;7358221;19;20015;-68
2023/04/19 08:07:52;;;;;;;0.00;0.00;;;;;;;12.40;55.97;102242.75;7362354;19;20006;-67
2023/04/19 08:10:18;;;;;;;0.00;0.00;;;;;;;12.34;55.30;102227.94;7360741;19;20649;-68
2023/04/19 08:12:44;;;;;;;0.10;0.10;;;;;;;12.44;55.79;102234.84;7358829;19;20010;-68
2023/04/19 08:15:09;;;;;;;0.00;0.00;;;;;;;12.50;55.86;102240.94;7360021;19;20717;-68
2023/04/19 08:17:35;;;;;;;0.10;0.10;;;;;;;12.51;56.05;102240.91;7359316;19;20522;-68
2023/04/19 08:20:00;;;;;;;0.00;0.00;;;;;;;12.57;55.30;102240.91;7359689;19;20014;-68
2023/04/19 08:22:25;;;;;;;0.00;0.00;;;;;;;12.61;55.22;102237.38;7361804;19;20046;-68
2023/04/19 08:24:51;;;;;;;0.00;0.00;;;;;;;12.63;55.51;102240.88;7360028;19;20018;-68
2023/04/19 08:27:17;;;;;;;0.03;0.03;;;;;;;12.67;55.83;102244.31;7360650;19;20006;-68
2023/04/19 08:29:43;;;;;;;0.00;0.00;;;;;;;12.70;55.60;102258.28;7361107;19;20335;-68
2023/04/19 08:32:10;;;;;;;0.00;0.00;;;;;;;12.67;55.31;102232.09;7362148;19;20006;-68
2023/04/19 08:34:37;;;;;;;0.00;0.00;;;;;;;12.77;55.21;102247.75;7356829;19;20007;-68
2023/04/19 08:37:03;;;;;;;0.00;0.00;;;;;;;12.79;55.39;102256.50;7360128;19;20493;-68
2023/04/19 08:39:29;;;;;;;0.00;0.00;;;;;;;12.78;55.73;102239.88;7355944;19;20183;-68
2023/04/19 08:41:58;;;;;;;0.10;0.10;;;;;;;12.83;55.87;102247.72;7362369;19;19999;-68
2023/04/19 08:44:25;;;;;;;0.00;0.00;;;;;;;12.72;55.82;102227.69;7359292;19;20019;-67
2023/04/19 08:46:51;;;;;;;0.00;0.00;;;;;;;12.91;55.36;102256.38;7361358;19;20023;-68
2023/04/19 08:49:20;;;;;;;0.00;0.00;;;;;;;12.86;55.47;102238.06;7355833;19;20426;-68
2023/04/19 08:51:50;;;;;;;0.00;0.00;;;;;;;12.99;55.52;102244.09;7357859;19;20023;-68
2023/04/19 08:54:17;;;;;;;0.00;0.00;;;;;;;12.99;55.26;102242.34;7357408;19;20014;-68
2023/04/19 08:56:42;;;;;;;0.00;0.00;;;;;;;12.99;55.24;102244.09;7361060;19;20032;-68
2023/04/19 08:59:07;;;;;;;0.00;0.00;;;;;;;13.02;55.83;102251.91;7358267;19;20014;-68
2023/04/19 09:01:33;;;;;;;0.00;0.00;;;;;;;13.04;55.74;102244.94;7359568;19;20745;-68
2023/04/19 09:03:58;;;;;;;0.00;0.00;;;;;;;13.04;55.46;102255.41;7357298;19;20014;-68
2023/04/19 09:06:25;;;;;;;0.00;0.00;;;;;;;13.07;55.99;102252.75;7356592;19;20006;-68
2023/04/19 09:08:57;;;;;;;0.00;0.00;;;;;;;13.10;55.59;102246.63;7358876;19;20023;-68
2023/04/19 09:11:36;;;;;;;0.00;0.00;;;;;;;13.02;54.86;102225.69;7355217;19;20042;-69
2023/04/19 09:14:10;;;;;;;0.10;0.10;;;;;;;13.14;54.86;102249.22;7357845;19;20010;-68
2023/04/19 09:16:38;;;;;;;0.00;0.00;;;;;;;13.15;55.40;102243.06;7357568;19;20021;-68
2023/04/19 09:19:05;;;;;;;0.00;0.00;;;;;;;13.16;55.82;102244.81;7356010;19;20025;-68
2023/04/19 09:21:31;;;;;;;0.00;0.00;;;;;;;13.18;55.49;102256.19;7360117;19;20022;-68
2023/04/19 09:23:57;;;;;;;0.00;0.00;;;;;;;13.12;55.82;102234.34;7357543;19;20014;-68
2023/04/19 09:26:23;;;;;;;0.00;0.00;;;;;;;13.21;55.57;102256.16;7357458;19;20007;-68
2023/04/19 09:29:00;;;;;;;0.00;0.00;;;;;;;13.27;55.20;102251.75;7355608;19;20492;-68
2023/04/19 09:31:27;;;;;;;0.00;0.00;;;;;;;13.24;55.87;102256.16;7356864;19;20823;-68
2023/04/19 09:33:53;;;;;;;0.00;0.00;;;;;;;13.28;55.59;102250.84;7355247;19;20477;-67
2023/04/19 09:36:30;;;;;;;0.00;0.00;;;;;;;13.33;55.57;102251.69;7355757;19;20617;-68
2023/04/19 09:38:56;;;;;;;0.00;0.00;;;;;;;13.31;56.38;102246.47;7360026;19;20014;-68
2023/04/19 09:41:21;;;;;;;0.00;0.00;;;;;;;13.30;56.11;102239.47;7353621;19;20146;-68
2023/04/19 09:43:47;;;;;;;0.00;0.00;;;;;;;13.41;56.01;102252.50;7357804;19;20744;-68
2023/04/19 09:46:35;;;;;;;0.00;0.00;;;;;;;13.50;54.93;102255.91;7356647;19;20006;-68
2023/04/19 09:49:23;;;;;;;0.00;0.00;;;;;;;13.55;55.29;102247.97;7257448;19;2004248;-68
2023/04/19 09:51:54;;;;;;;0.00;0.00;;;;;;;13.57;55.11;102253.22;7358473;19;21055;-68
2023/04/19 09:54:22;;;;;;;0.00;0.00;;;;;;;13.57;55.58;102256.69;7356469;19;20554;-68
2023/04/19 09:56:48;;;;;;;;;;;;;;;13.64;54.52;102245.28;7360331;19;20022;-68
2023/04/19 09:59:13;;;;;;;0.00;0.00;;;;;;;13.64;55.96;102249.66;7357423;19;20490;-68
2023/04/19 10:01:46;;;;;;;0.00;0.00;;;;;;;13.69;55.58;102243.47;7355929;19;20022;-68
2023/04/19 10:04:20;;;;;;;0.00;0.00;;;;;;;13.69;55.38;102238.22;7354648;19;20747;-67
2023/04/19 10:06:50;;;;;;;0.00;0.00;;;;;;;13.70;55.36;102241.72;7356016;19;20010;-68
2023/04/19 10:09:17;;;;;;;0.10;0.10;;;;;;;13.74;55.49;102244.28;7356924;19;20010;-68
2023/04/19 10:11:47;;;;;;;0.00;0.00;;;;;;;13.80;55.37;102242.47;7358054;19;20376;-68
2023/04/19 10:14:14;;;;;;;0.00;0.00;;;;;;;13.79;55.60;102243.34;7356585;19;20023;-68
2023/04/19 10:16:39;;;;;;;0.00;0.00;;;;;;;13.82;55.69;102243.31;7357538;19;20015;-68
2023/04/19 10:19:09;;;;;;;0.00;0.00;;;;;;;13.87;55.47;102241.50;7357175;19;20388;-68
2023/04/19 10:21:36;;;;;;;0.10;0.10;;;;;;;13.89;55.58;102251.13;7357192;19;20937;-68
2023/04/19 10:24:02;;;;;;;0.00;0.00;;;;;;;13.81;55.52;102226.69;7356636;19;20034;-68
2023/04/19 10:26:27;;;;;;;0.00;0.00;;;;;;;13.91;55.58;102243.22;7358299;19;20015;-68
2023/04/19 10:28:55;;;;;;;0.00;0.00;;;;;;;13.97;55.94;102237.88;7356486;19;20375;-68
2023/04/19 10:31:22;;;;;;;0.00;0.00;;;;;;;13.94;55.51;102232.69;7356926;19;20110;-68
2023/04/19 10:33:49;;;;;;;0.00;0.00;;;;;;;14.03;55.49;102243.06;7356435;19;20014;-68
2023/04/19 10:36:16;;;;;;;0.00;0.00;;;;;;;14.08;55.45;102235.97;7354476;19;20078;-68
2023/04/19 10:38:50;;;;;;;0.00;0.00;;;;;;;14.14;55.35;102240.28;7357493;19;20010;-68
2023/04/19 10:41:17;;;;;;;0.00;0.00;;;;;;;14.06;55.33;102232.53;7360541;19;20006;-68
2023/04/19 10:43:54;;;;;;;0.00;0.00;;;;;;;14.07;55.47;102215.00;7360477;19;20098;-67
2023/04/19 10:46:19;;;;;;;0.00;0.00;;;;;;;14.20;55.33;102235.84;7361736;19;20029;-68
2023/04/19 10:48:57;;;;;;;0.00;0.00;;;;;;;14.28;55.11;102228.72;7364098;19;20446;-68
2023/04/19 10:51:26;;;;;;;0.00;0.00;;;;;;;14.26;55.39;102230.50;7362401;19;20021;-68
2023/04/19 10:53:55;;;;;;;0.00;0.00;;;;;;;14.32;54.83;102224.28;7359678;19;20014;-68
2023/04/19 10:56:42;;;;;;;0.10;0.10;;;;;;;14.32;55.11;102236.56;7360939;19;20026;-67
2023/04/19 10:59:11;;;;;;;0.10;0.10;;;;;;;14.33;54.79;102231.28;7359529;19;20014;-68
2023/04/19 11:01:45;;;;;;;0.00;0.00;;;;;;;14.34;54.78;102237.41;7361684;19;20011;-68
2023/04/19 11:04:16;;;;;;;0.10;0.10;;;;;;;14.33;54.42;102233.03;7362266;19;20011;-68
2023/04/19 11:06:53;;;;;;;0.00;0.00;;;;;;;14.32;54.38;102233.94;7358704;19;20767;-68
2023/04/19 11:09:29;;;;;;;0.00;0.00;;;;;;;14.31;54.34;102232.19;7362077;19;20014;-68
2023/04/19 11:12:03;;;;;;;0.00;0.00;;;;;;;14.30;54.34;102230.47;7362260;19;20021;-68
2023/04/19 11:14:33;;;;;;;0.00;0.00;;;;;;;14.27;54.86;102240.13;7360516;19;20015;-68
2023/04/19 11:16:59;;;;;;;0.00;0.00;;;;;;;14.24;54.70;102241.91;7362115;19;20017;-68
2023/04/19 11:19:25;;;;;;;0.00;0.00;;;;;;;14.22;54.71;102227.94;7362547;19;20014;-68
2023/04/19 11:21:50;;;;;;;0.00;0.00;;;;;;;14.18;54.90;102229.72;7359490;19;21066;-68
2023/04/19 11:24:17;;;;;;;0.00;0.00;;;;;;;14.17;54.92;102230.63;7361017;19;20459;-68